Time;durP1;ratioP1;P1;durP2;ratioP2;P2;SDS_P1;SDS_P2;PMS_P1;PMS_P2;Temp;Humidity;BMP_temperature;BMP_pressure;BME280_temperature;BME280_humidity;BME280_pressure;Samples;Min_cycle;Max_cycle;Signal;HPM_P1;HPM_P2
2022/08/09 00:01:50;;;;;;;4.82;3.50;;;;;;;17.76;59.11;101291.81;5073937;28;20488;-65
2022/08/09 00:04:19;;;;;;;6.35;3.78;;;;;;;17.69;59.27;101303.63;5076493;28;20059;-64
2022/08/09 00:06:46;;;;;;;5.27;3.63;;;;;;;17.61;59.51;101296.06;5090377;28;20052;-64
2022/08/09 00:09:16;;;;;;;5.88;3.35;;;;;;;17.56;59.70;101299.09;5082059;28;20064;-64
2022/08/09 00:11:45;;;;;;;4.18;3.30;;;;;;;17.54;59.79;101302.25;5077280;28;20061;-64
2022/08/09 00:14:13;;;;;;;4.40;3.40;;;;;;;17.52;60.05;101309.41;5093103;28;20043;-64
2022/08/09 00:16:40;;;;;;;5.18;3.50;;;;;;;17.47;60.13;101309.59;5096491;28;20056;-60
2022/08/09 00:19:08;;;;;;;4.05;3.65;;;;;;;17.42;60.38;101302.97;5085846;28;20488;-59
2022/08/09 00:21:36;;;;;;;3.65;2.83;;;;;;;17.38;60.59;101304.00;5078342;28;20064;-60
2022/08/09 00:24:04;;;;;;;4.43;3.67;;;;;;;17.35;60.66;101302.69;5095634;28;20060;-60
2022/08/09 00:26:33;;;;;;;3.65;3.30;;;;;;;17.32;60.64;101296.91;5088211;28;20696;-60
2022/08/09 00:29:01;;;;;;;3.50;3.10;;;;;;;17.33;60.47;101293.78;5089759;28;20051;-60
2022/08/09 00:31:29;;;;;;;4.63;3.28;;;;;;;17.29;60.68;101297.63;5076988;28;20493;-60
2022/08/09 00:33:57;;;;;;;5.20;3.50;;;;;;;17.27;60.70;101294.31;5091443;28;20412;-60
2022/08/09 00:36:25;;;;;;;4.10;3.20;;;;;;;17.24;60.95;101291.00;5075557;28;20052;-60
2022/08/09 00:38:52;;;;;;;4.97;3.22;;;;;;;17.23;61.12;101291.34;5075265;28;20060;-60
2022/08/09 00:41:21;;;;;;;3.97;3.25;;;;;;;17.21;60.93;101290.84;5075321;28;20052;-60
2022/08/09 00:43:50;;;;;;;4.50;3.75;;;;;;;17.21;60.90;101297.31;5095204;28;20492;-61
2022/08/09 00:46:18;;;;;;;4.22;3.00;;;;;;;17.21;60.98;101296.47;5075369;28;20486;-60
2022/08/09 00:48:46;;;;;;;3.40;3.00;;;;;;;17.17;60.98;101290.69;5074982;28;20057;-60
2022/08/09 00:51:16;;;;;;;5.22;3.15;;;;;;;17.17;61.10;101292.69;5072427;28;20497;-60
2022/08/09 00:53:45;;;;;;;3.97;2.72;;;;;;;17.08;61.86;101294.75;5055184;28;20053;-60
2022/08/09 00:56:16;;;;;;;5.53;3.03;;;;;;;17.03;61.82;101307.84;5072430;28;20049;-60
2022/08/09 00:58:43;;;;;;;3.92;3.20;;;;;;;16.98;61.79;101296.75;5089150;28;20051;-60
2022/08/09 01:01:19;;;;;;;5.60;2.83;;;;;;;16.94;62.03;101298.59;5077609;28;20139;-60
2022/08/09 01:03:53;;;;;;;6.68;2.90;;;;;;;16.86;62.32;101296.63;5095125;28;20066;-60
2022/08/09 01:06:28;;;;;;;5.00;3.20;;;;;;;16.84;62.26;101294.19;5079291;28;20501;-60
2022/08/09 01:09:03;;;;;;;3.60;2.80;;;;;;;16.82;62.64;101301.31;5074987;28;20052;-61
2022/08/09 01:11:42;;;;;;;3.55;2.85;;;;;;;16.82;62.54;101295.69;5077520;28;20051;-61
2022/08/09 01:14:14;;;;;;;3.80;2.93;;;;;;;16.79;62.61;101299.94;5095284;28;20056;-61
2022/08/09 01:16:45;;;;;;;4.40;2.70;;;;;;;16.80;62.66;101303.59;5079146;28;20498;-65
2022/08/09 01:19:27;;;;;;;4.75;2.95;;;;;;;16.77;63.02;101301.44;5073526;28;20064;-65
2022/08/09 01:22:24;;;;;;;5.05;2.90;;;;;;;16.76;62.78;101297.00;5080915;28;20044;-64
2022/08/09 01:25:00;;;;;;;4.03;3.05;;;;;;;16.76;62.83;101313.88;5094834;28;20059;-65
2022/08/09 01:27:31;;;;;;;4.68;3.30;;;;;;;16.77;63.01;101310.72;5068163;28;20063;-66
2022/08/09 01:30:02;;;;;;;4.13;2.90;;;;;;;16.76;63.15;101305.44;5074655;28;20404;-65
2022/08/09 01:32:42;;;;;;;3.67;3.00;;;;;;;16.69;63.13;101310.75;5083246;28;20056;-65
2022/08/09 01:35:15;;;;;;;4.30;2.75;;;;;;;16.62;63.41;101298.00;5094817;28;20048;-66
2022/08/09 01:37:45;;;;;;;4.30;2.92;;;;;;;16.55;63.69;101303.34;5074968;28;20079;-65
2022/08/09 01:40:24;;;;;;;5.10;2.80;;;;;;;16.47;63.85;101301.38;5073860;28;20060;-65
2022/08/09 01:42:55;;;;;;;4.65;3.25;;;;;;;16.47;63.77;101301.38;5087244;28;20505;-66
2022/08/09 01:45:36;;;;;;;4.25;2.78;;;;;;;16.47;63.49;101297.75;5094240;28;20058;-65
2022/08/09 01:48:06;;;;;;;3.88;3.17;;;;;;;16.45;63.70;101306.50;5093912;28;20052;-65
2022/08/09 01:50:35;;;;;;;3.47;2.88;;;;;;;16.47;63.65;101297.75;5094124;28;20052;-66
2022/08/09 01:53:03;;;;;;;4.45;3.05;;;;;;;16.44;63.85;101302.03;5073970;28;20052;-66
2022/08/09 01:55:34;;;;;;;3.78;3.10;;;;;;;16.41;64.24;101305.53;5073763;28;20127;-66
2022/08/09 01:58:05;;;;;;;4.10;2.92;;;;;;;16.41;64.25;101302.72;5074144;28;20412;-65
2022/08/09 02:00:34;;;;;;;2.90;2.42;;;;;;;16.35;64.04;101298.41;5073527;28;20068;-66
2022/08/09 02:03:02;;;;;;;4.65;3.08;;;;;;;16.32;64.28;101304.72;5076188;28;20053;-66
2022/08/09 02:05:31;;;;;;;3.83;2.63;;;;;;;16.31;64.23;101301.06;5073710;28;20064;-67
2022/08/09 02:08:03;;;;;;;3.45;3.08;;;;;;;16.33;64.04;101300.72;5073658;28;20055;-65
2022/08/09 02:10:42;;;;;;;4.55;3.13;;;;;;;16.32;64.28;101299.09;5073218;28;20045;-65
2022/08/09 02:13:13;;;;;;;3.10;2.80;;;;;;;16.23;64.54;101294.31;5073462;28;20044;-61
2022/08/09 02:15:44;;;;;;;6.28;3.50;;;;;;;16.20;64.40;101300.56;5073511;28;20497;-61
2022/08/09 02:18:14;;;;;;;4.75;3.00;;;;;;;16.21;64.65;101312.63;5073400;28;20044;-61
2022/08/09 02:20:48;;;;;;;4.32;3.22;;;;;;;16.16;64.35;101312.81;5071827;28;20056;-63
2022/08/09 02:23:20;;;;;;;4.03;2.72;;;;;;;16.12;64.51;101307.03;5082029;28;20382;-66
2022/08/09 02:25:58;;;;;;;4.50;2.92;;;;;;;16.09;64.49;101315.31;5073356;28;20421;-65
2022/08/09 02:28:33;;;;;;;4.07;2.60;;;;;;;16.00;64.44;101309.69;5073244;28;20056;-61
2022/08/09 02:31:11;;;;;;;4.97;3.20;;;;;;;15.94;64.69;101311.03;5073302;28;20064;-61
2022/08/09 02:33:42;;;;;;;5.00;2.85;;;;;;;15.91;64.94;101309.69;5079138;28;20049;-61
2022/08/09 02:36:14;;;;;;;4.07;2.78;;;;;;;15.89;64.98;101319.59;5073192;28;20508;-61
2022/08/09 02:38:47;;;;;;;5.47;3.55;;;;;;;15.85;64.93;101307.38;5072945;28;20075;-61
2022/08/09 02:41:25;;;;;;;3.30;2.90;;;;;;;15.83;65.34;101300.13;5073062;28;20059;-61
2022/08/09 02:44:29;;;;;;;6.32;3.35;;;;;;;15.81;65.24;101304.38;5082322;28;20531;-60
2022/08/09 02:47:03;;;;;;;4.47;3.10;;;;;;;15.77;65.35;101304.25;5072727;28;20064;-60
2022/08/09 02:49:32;;;;;;;4.97;3.13;;;;;;;15.75;65.29;101302.94;5072767;28;20055;-60
2022/08/09 02:52:01;;;;;;;;;;;;;;;15.69;65.55;101302.22;5083344;28;20048;-61
2022/08/09 02:54:37;;;;;;;5.60;3.25;;;;;;;15.68;65.22;101292.13;5079902;28;20304;-60
2022/08/09 02:57:05;;;;;;;5.07;3.00;;;;;;;15.64;65.56;101296.75;5072635;28;20057;-60
2022/08/09 02:59:36;;;;;;;3.78;2.65;;;;;;;15.63;65.75;101306.34;5072188;28;20075;-61
2022/08/09 03:02:09;;;;;;;3.83;3.00;;;;;;;15.63;65.63;101297.91;5059230;28;20056;-60
2022/08/09 03:04:54;;;;;;;5.85;3.40;;;;;;;15.59;65.47;101297.72;5063496;28;20515;-61
2022/08/09 03:07:23;;;;;;;3.67;3.00;;;;;;;15.54;65.78;101311.09;5072173;28;20056;-61
2022/08/09 03:09:53;;;;;;;4.93;3.35;;;;;;;15.47;65.84;101302.34;5080836;28;20052;-61
2022/08/09 03:12:27;;;;;;;3.40;3.05;;;;;;;15.46;65.84;101309.13;5072963;28;20056;-61
2022/08/09 03:14:57;;;;;;;4.45;3.42;;;;;;;15.45;66.18;101316.69;5072163;28;20048;-60
2022/08/09 03:17:25;;;;;;;5.20;2.90;;;;;;;15.43;66.07;101308.63;5076734;28;20052;-60
2022/08/09 03:19:55;;;;;;;4.15;2.63;;;;;;;15.43;66.24;101307.78;5083182;28;20110;-60
2022/08/09 03:22:23;;;;;;;3.63;2.72;;;;;;;15.39;66.68;101310.44;5072818;28;20049;-61
2022/08/09 03:24:50;;;;;;;4.80;3.00;;;;;;;15.37;66.77;101301.50;5071987;28;20067;-60
2022/08/09 03:27:21;;;;;;;4.07;2.97;;;;;;;15.38;66.52;101311.56;5077493;28;20056;-60
2022/08/09 03:29:51;;;;;;;4.72;3.22;;;;;;;15.37;66.25;101304.31;5086911;28;20071;-61
2022/08/09 03:32:21;;;;;;;4.72;2.72;;;;;;;15.36;66.08;101313.06;5092216;28;20044;-61
2022/08/09 03:34:49;;;;;;;3.17;2.88;;;;;;;15.34;65.98;101315.38;5087749;28;20391;-60
2022/08/09 03:37:16;;;;;;;4.18;3.45;;;;;;;15.30;66.37;101308.75;5076653;28;20071;-60
2022/08/09 03:39:44;;;;;;;4.50;3.40;;;;;;;15.26;66.43;101314.19;5087293;28;20048;-60
2022/08/09 03:42:11;;;;;;;4.32;3.20;;;;;;;15.26;66.56;101311.38;5074518;28;20048;-60
2022/08/09 03:44:38;;;;;;;5.30;3.13;;;;;;;15.23;66.54;101310.03;5076102;28;20052;-61
2022/08/09 03:47:06;;;;;;;3.60;2.85;;;;;;;15.23;66.51;101314.84;5074764;28;20055;-60
2022/08/09 03:49:36;;;;;;;4.45;3.15;;;;;;;15.19;66.50;101309.03;5096612;28;20055;-64
2022/08/09 03:52:06;;;;;;;3.83;3.13;;;;;;;15.17;66.34;101307.72;5077126;28;20057;-65
2022/08/09 03:54:36;;;;;;;3.67;2.55;;;;;;;15.14;66.19;101311.16;5076311;28;20057;-65
2022/08/09 03:57:06;;;;;;;5.53;4.00;;;;;;;15.10;66.75;101310.16;5078260;28;20051;-65
2022/08/09 03:59:34;;;;;;;4.03;3.28;;;;;;;15.09;66.60;101308.50;5095908;28;20056;-65
2022/08/09 04:02:02;;;;;;;5.13;3.30;;;;;;;15.10;66.42;101310.16;5087437;28;20055;-64
2022/08/09 04:04:31;;;;;;;4.30;3.40;;;;;;;15.11;66.51;101309.03;5096082;28;20044;-64
2022/08/09 04:06:59;;;;;;;4.50;3.35;;;;;;;15.07;66.76;101303.22;5079987;28;20052;-64
2022/08/09 04:09:27;;;;;;;4.10;3.70;;;;;;;15.05;67.16;101313.13;5086922;28;20052;-64
2022/08/09 04:12:14;;;;;;;6.82;3.75;;;;;;;15.08;67.38;101306.88;5088585;28;20154;-64
2022/08/09 04:14:42;;;;;;;4.88;3.50;;;;;;;15.14;67.34;101305.53;5058258;28;20048;-64
2022/08/09 04:17:09;;;;;;;4.95;3.40;;;;;;;15.19;67.35;101313.84;5075675;28;20052;-64
2022/08/09 04:19:36;;;;;;;5.15;3.50;;;;;;;15.22;67.31;101313.16;5075952;28;20511;-64
2022/08/09 04:22:05;;;;;;;6.15;3.85;;;;;;;15.26;66.91;101314.19;5075335;28;20501;-65
2022/08/09 04:24:33;;;;;;;4.60;3.55;;;;;;;15.30;67.19;101317.97;5089089;28;20048;-64
2022/08/09 04:27:00;;;;;;;5.88;3.63;;;;;;;15.22;67.02;101311.22;5086934;28;20480;-64
2022/08/09 04:29:27;;;;;;;5.65;3.80;;;;;;;15.29;66.61;101318.34;5075312;28;20398;-65
2022/08/09 04:31:55;;;;;;;5.05;3.45;;;;;;;15.26;66.81;101325.41;5074807;28;20059;-64
2022/08/09 04:34:22;;;;;;;4.00;3.60;;;;;;;15.26;66.52;101330.19;5090204;28;20059;-65
2022/08/09 04:36:49;;;;;;;4.90;3.83;;;;;;;15.25;66.40;101323.75;5091238;28;20056;-64
2022/08/09 04:39:18;;;;;;;5.90;3.70;;;;;;;15.25;66.36;101328.56;5075359;28;20401;-65
2022/08/09 04:41:46;;;;;;;6.30;3.80;;;;;;;15.20;66.48;101338.78;5075642;28;20060;-64
2022/08/09 04:44:13;;;;;;;4.75;3.55;;;;;;;15.22;66.23;101341.22;5089206;28;20510;-64
2022/08/09 04:46:40;;;;;;;4.95;3.30;;;;;;;15.25;66.24;101348.19;5095045;28;20044;-64
2022/08/09 04:49:08;;;;;;;6.75;4.18;;;;;;;15.23;66.21;101345.72;5075450;28;20360;-65
2022/08/09 04:51:35;;;;;;;5.93;4.13;;;;;;;15.24;66.25;101347.34;5075437;28;20054;-65
2022/08/09 04:54:03;;;;;;;5.40;3.83;;;;;;;15.22;66.17;101344.91;5084303;28;20040;-64
2022/08/09 04:56:32;;;;;;;5.65;3.80;;;;;;;15.26;66.17;101342.25;5093252;28;20480;-65
2022/08/09 04:59:00;;;;;;;4.43;3.58;;;;;;;15.33;66.10;101342.63;5077711;28;20068;-66
2022/08/09 05:01:27;;;;;;;4.07;3.58;;;;;;;15.32;66.11;101340.94;5070132;28;20049;-65
2022/08/09 05:03:54;;;;;;;5.18;4.45;;;;;;;15.35;66.28;101345.91;5074379;28;20045;-64
2022/08/09 05:06:22;;;;;;;6.57;4.28;;;;;;;15.40;66.23;101350.56;5072886;28;20060;-65
2022/08/09 05:08:49;;;;;;;5.63;4.90;;;;;;;15.38;66.56;101344.44;5078849;28;20053;-61
2022/08/09 05:11:17;;;;;;;5.45;4.20;;;;;;;15.24;67.49;101344.53;5073913;28;20075;-60
2022/08/09 05:13:46;;;;;;;6.45;4.00;;;;;;;15.40;66.92;101342.94;5073009;28;20049;-60
2022/08/09 05:16:13;;;;;;;4.47;3.75;;;;;;;15.48;66.93;101346.13;5070170;28;20045;-60
2022/08/09 05:18:40;;;;;;;5.63;4.15;;;;;;;15.53;66.90;101341.16;5071963;28;20056;-60
2022/08/09 05:21:08;;;;;;;6.63;4.65;;;;;;;15.26;68.50;101341.41;5078864;28;20131;-51
2022/08/09 05:23:35;;;;;;;6.38;4.90;;;;;;;15.15;69.27;101352.13;5083933;28;20053;-51
2022/08/09 05:26:02;;;;;;;7.50;4.18;;;;;;;15.29;69.09;101350.03;5073159;28;20055;-48
2022/08/09 05:28:29;;;;;;;8.93;5.40;;;;;;;15.38;68.55;101356.47;5080944;28;20055;-49
2022/08/09 05:30:58;;;;;;;5.63;4.47;;;;;;;15.53;68.56;101355.19;5069890;28;20120;-48
2022/08/09 05:33:25;;;;;;;7.17;4.13;;;;;;;15.61;68.21;101357.22;5069251;28;20053;-50
2022/08/09 05:35:53;;;;;;;4.53;3.83;;;;;;;15.84;67.75;101351.50;5074104;28;20496;-48
2022/08/09 05:38:20;;;;;;;5.40;3.80;;;;;;;15.90;67.39;101352.19;5083146;28;20055;-47
2022/08/09 05:40:47;;;;;;;5.38;3.95;;;;;;;16.00;67.13;101360.25;5093725;28;20492;-48
2022/08/09 05:43:15;;;;;;;5.88;4.15;;;;;;;16.23;66.69;101352.50;5093973;28;20048;-49
2022/08/09 05:45:42;;;;;;;7.00;5.13;;;;;;;16.38;65.71;101343.56;5074261;28;20362;-52
2022/08/09 05:48:11;;;;;;;7.68;4.55;;;;;;;16.42;65.73;101352.16;5077534;28;20044;-50
2022/08/09 05:50:40;;;;;;;6.17;4.60;;;;;;;16.53;65.68;101350.66;5076955;28;20512;-51
2022/08/09 05:53:08;;;;;;;8.02;3.90;;;;;;;16.58;66.14;101342.03;5073684;28;20057;-49
2022/08/09 05:55:35;;;;;;;7.60;4.38;;;;;;;16.80;65.76;101345.81;5073271;28;20445;-47
2022/08/09 05:58:02;;;;;;;5.72;4.25;;;;;;;17.01;65.53;101343.13;5079461;28;20055;-53
2022/08/09 06:00:31;;;;;;;5.85;4.10;;;;;;;17.22;65.18;101344.03;5081035;28;20063;-49
2022/08/09 06:03:00;;;;;;;6.22;3.60;;;;;;;17.43;64.56;101349.72;5058168;28;20049;-50
2022/08/09 06:05:31;;;;;;;4.97;4.05;;;;;;;17.60;63.98;101348.78;5062330;28;20059;-60
2022/08/09 06:07:59;;;;;;;6.20;5.10;;;;;;;17.72;64.17;101353.66;5085139;28;20055;-60
2022/08/09 06:10:36;;;;;;;5.07;3.92;;;;;;;17.79;64.17;101353.97;5070476;28;20053;-60
2022/08/09 06:13:04;;;;;;;8.25;5.07;;;;;;;17.93;63.89;101352.91;5072912;28;20056;-60
2022/08/09 06:15:31;;;;;;;5.00;4.13;;;;;;;18.06;63.44;101354.63;5072837;28;20071;-60
2022/08/09 06:17:59;;;;;;;4.90;4.38;;;;;;;18.18;63.16;101356.69;5081647;28;20059;-60
2022/08/09 06:20:26;;;;;;;7.63;4.30;;;;;;;18.22;63.24;101350.00;5087171;28;20049;-60
2022/08/09 06:22:55;;;;;;;5.72;3.80;;;;;;;18.32;62.75;101339.47;5073007;28;20052;-61
2022/08/09 06:25:23;;;;;;;6.78;4.13;;;;;;;18.39;62.58;101353.84;5072447;28;20401;-61
2022/08/09 06:27:50;;;;;;;5.03;3.80;;;;;;;18.51;62.29;101356.72;5079844;28;20496;-60
2022/08/09 06:30:17;;;;;;;5.07;3.90;;;;;;;18.54;62.29;101353.22;5091008;28;20218;-60
2022/08/09 06:32:45;;;;;;;6.15;4.15;;;;;;;18.66;61.94;101356.03;5070473;28;20439;-61
2022/08/09 06:35:13;;;;;;;4.82;4.10;;;;;;;18.81;61.77;101350.94;5070624;28;20167;-60
2022/08/09 06:37:40;;;;;;;5.60;3.70;;;;;;;18.94;61.11;101355.47;5076993;28;20059;-61
2022/08/09 06:40:10;;;;;;;5.38;3.85;;;;;;;18.99;61.46;101355.22;5067264;28;20063;-61
2022/08/09 06:42:38;;;;;;;5.38;4.25;;;;;;;19.05;61.13;101355.81;5061683;28;20063;-60
2022/08/09 06:45:06;;;;;;;4.50;3.80;;;;;;;19.20;61.02;101357.13;5068739;28;20048;-61
2022/08/09 06:47:33;;;;;;;4.43;4.00;;;;;;;19.32;60.47;101348.69;5063370;28;20103;-61
2022/08/09 06:50:01;;;;;;;4.15;3.50;;;;;;;19.46;60.24;101349.16;5066232;28;20048;-61
2022/08/09 06:52:28;;;;;;;6.22;3.80;;;;;;;19.53;59.64;101348.56;5061525;28;20432;-60
2022/08/09 06:54:55;;;;;;;6.65;3.55;;;;;;;19.67;59.13;101351.00;5065472;28;20500;-61
2022/08/09 06:57:24;;;;;;;5.47;3.80;;;;;;;19.80;59.26;101361.16;5066419;28;20685;-61
2022/08/09 06:59:52;;;;;;;5.10;3.53;;;;;;;19.80;58.87;101360.31;5068646;28;20052;-61
2022/08/09 07:02:20;;;;;;;5.70;3.78;;;;;;;19.90;58.69;101361.84;5064170;28;20475;-61
2022/08/09 07:04:47;;;;;;;6.38;4.47;;;;;;;19.99;58.61;101362.50;5066267;28;20563;-61
2022/08/09 07:07:15;;;;;;;6.20;4.18;;;;;;;20.13;58.42;101368.59;5065150;28;20065;-60
2022/08/09 07:09:43;;;;;;;5.15;4.10;;;;;;;20.23;58.24;101368.09;5063964;28;20493;-61
2022/08/09 07:12:11;;;;;;;5.57;3.77;;;;;;;20.32;57.63;101372.78;5066999;28;20412;-61
2022/08/09 07:14:40;;;;;;;5.75;3.90;;;;;;;20.44;57.28;101372.75;5067821;28;20052;-61
2022/08/09 07:17:07;;;;;;;5.47;3.90;;;;;;;20.49;57.34;101372.47;5066326;28;20079;-61
2022/08/09 07:19:35;;;;;;;3.90;3.30;;;;;;;20.62;56.76;101364.78;5066095;28;20057;-61
2022/08/09 07:22:02;;;;;;;5.13;3.33;;;;;;;20.73;56.43;101365.13;5066490;28;20049;-61
2022/08/09 07:24:30;;;;;;;5.32;3.38;;;;;;;20.88;55.95;101367.13;5063852;28;20707;-61
2022/08/09 07:26:58;;;;;;;5.40;3.67;;;;;;;21.16;55.05;101358.56;5065223;28;20056;-61
2022/08/09 07:29:26;;;;;;;3.58;2.90;;;;;;;21.78;53.62;101364.56;5066744;28;20052;-62
2022/08/09 07:31:59;;;;;;;4.50;3.88;;;;;;;22.48;51.31;101368.53;5065295;28;20068;-60
2022/08/09 07:34:26;;;;;;;4.95;3.50;;;;;;;23.04;50.19;101368.03;5060623;28;20044;-61
2022/08/09 07:36:54;;;;;;;4.97;3.15;;;;;;;23.76;48.74;101363.56;5064368;28;20056;-60
2022/08/09 07:39:22;;;;;;;3.80;2.88;;;;;;;24.50;46.31;101362.13;5065772;28;20066;-60
2022/08/09 07:41:49;;;;;;;5.53;3.60;;;;;;;25.15;45.10;101357.13;5065959;28;20064;-61
2022/08/09 07:44:16;;;;;;;5.13;3.40;;;;;;;25.95;43.42;101345.13;5063184;28;20063;-63
2022/08/09 07:46:44;;;;;;;5.60;2.78;;;;;;;26.76;41.92;101345.91;5062092;28;20509;-60
2022/08/09 07:49:13;;;;;;;5.13;3.13;;;;;;;27.57;39.81;101343.50;5063350;28;20052;-60
2022/08/09 07:51:40;;;;;;;3.45;2.47;;;;;;;28.37;38.48;101336.31;5064131;28;20400;-61
2022/08/09 07:54:07;;;;;;;5.32;3.03;;;;;;;29.08;37.24;101344.53;5064054;28;20498;-61
2022/08/09 07:56:36;;;;;;;3.85;2.88;;;;;;;29.68;36.06;101336.63;5062403;28;20060;-61
2022/08/09 07:59:04;;;;;;;3.85;2.50;;;;;;;30.63;34.64;101332.22;5065023;28;20051;-61
2022/08/09 08:01:31;;;;;;;3.95;2.92;;;;;;;31.32;32.96;101343.53;5066122;28;20052;-61
2022/08/09 08:03:58;;;;;;;6.50;3.03;;;;;;;31.78;32.06;101332.44;5067676;28;20056;-61
2022/08/09 08:06:27;;;;;;;6.80;3.53;;;;;;;32.51;30.89;101342.06;5066577;28;20469;-62
2022/08/09 08:08:54;;;;;;;5.07;3.30;;;;;;;33.18;29.86;101341.78;5063704;28;20071;-63
2022/08/09 08:11:21;;;;;;;4.68;3.05;;;;;;;34.22;28.52;101353.44;5066466;28;20412;-64
2022/08/09 08:13:49;;;;;;;5.97;3.65;;;;;;;34.99;26.70;101344.09;5064390;28;20060;-62
2022/08/09 08:16:16;;;;;;;4.38;3.42;;;;;;;35.49;26.01;101346.13;5062135;28;20053;-62
2022/08/09 08:18:43;;;;;;;4.82;3.20;;;;;;;36.08;25.39;101351.50;5065500;28;20528;-62
2022/08/09 08:21:11;;;;;;;7.82;3.50;;;;;;;36.86;24.11;101347.66;5064742;28;20052;-61
2022/08/09 08:23:39;;;;;;;5.00;3.58;;;;;;;37.25;24.01;101341.50;5067075;28;20428;-62
2022/08/09 08:26:07;;;;;;;4.25;3.80;;;;;;;37.63;23.29;101346.91;5063194;28;20049;-62
2022/08/09 08:28:34;;;;;;;4.43;3.57;;;;;;;37.81;22.88;101346.13;5066658;28;20055;-62
2022/08/09 08:31:02;;;;;;;4.90;3.20;;;;;;;38.02;22.74;101349.34;5066113;28;20052;-62
2022/08/09 08:33:30;;;;;;;4.90;3.60;;;;;;;38.78;21.68;101354.06;5073692;28;20119;-62
2022/08/09 08:35:57;;;;;;;5.38;3.83;;;;;;;39.57;20.61;101350.13;5068012;28;20508;-62
2022/08/09 08:38:24;;;;;;;5.05;3.70;;;;;;;39.83;20.22;101348.78;5070584;28;20412;-62
2022/08/09 08:40:55;;;;;;;3.85;3.28;;;;;;;40.17;20.15;101344.44;5069113;28;20079;-62
2022/08/09 08:43:23;;;;;;;4.88;3.80;;;;;;;40.98;18.78;101346.16;5065922;28;20056;-62
2022/08/09 08:45:51;;;;;;;;;;;;;;;41.37;18.84;101340.09;5069514;28;20400;-63
2022/08/09 08:48:18;;;;;;;;;;;;;;;41.62;18.48;101341.50;5070717;28;20296;-63
2022/08/09 08:50:47;;;;;;;4.97;3.60;;;;;;;42.14;18.05;101334.94;5068586;28;20320;-63
2022/08/09 08:53:15;;;;;;;4.35;3.83;;;;;;;42.95;17.37;101338.91;5069754;28;20476;-63
2022/08/09 08:55:43;;;;;;;5.72;5.13;;;;;;;43.32;16.88;101332.19;5067251;28;20044;-64
2022/08/09 08:58:12;;;;;;;5.53;3.85;;;;;;;43.92;16.28;101341.78;5066593;28;20056;-64
2022/08/09 09:00:41;;;;;;;4.82;3.75;;;;;;;43.94;16.09;101333.25;5067665;28;20060;-62
2022/08/09 09:03:11;;;;;;;4.20;3.40;;;;;;;45.26;15.24;101338.69;5065501;28;20552;-62
2022/08/09 09:05:39;;;;;;;4.30;3.03;;;;;;;45.66;14.46;101340.16;5065696;28;20051;-62
2022/08/09 09:08:07;;;;;;;4.78;4.38;;;;;;;45.76;14.78;101335.53;5070278;28;20060;-63
2022/08/09 09:10:37;;;;;;;5.07;4.50;;;;;;;46.51;14.12;101348.47;5066937;28;20048;-63
2022/08/09 09:13:05;;;;;;;5.85;5.28;;;;;;;47.05;13.62;101346.91;5069484;28;20052;-64
2022/08/09 09:15:34;;;;;;;5.43;4.28;;;;;;;47.26;13.08;101359.03;5067865;28;20053;-63
2022/08/09 09:18:02;;;;;;;4.78;4.18;;;;;;;47.98;12.73;101359.47;5069452;28;20497;-64
2022/08/09 09:20:34;;;;;;;4.70;4.03;;;;;;;47.82;12.81;101357.53;5066255;28;20500;-62
2022/08/09 09:23:02;;;;;;;5.20;3.92;;;;;;;48.56;12.17;101349.97;5067440;28;20412;-62
2022/08/09 09:25:36;;;;;;;;;;;;;;;48.65;12.05;101354.69;5065867;28;20441;-61
2022/08/09 09:28:04;;;;;;;5.25;4.20;;;;;;;48.95;11.63;101348.50;5065572;28;19927;-62
2022/08/09 09:30:34;;;;;;;6.55;4.35;;;;;;;49.43;11.14;101351.63;5067254;28;20056;-62
2022/08/09 09:33:07;;;;;;;4.70;4.30;;;;;;;49.09;11.68;101346.38;5067627;28;20057;-62
2022/08/09 09:35:34;;;;;;;4.45;4.10;;;;;;;49.39;11.41;101339.31;5066586;28;20047;-61
2022/08/09 09:38:02;;;;;;;6.57;6.18;;;;;;;49.76;11.08;101343.41;5066937;28;20066;-62
2022/08/09 09:40:43;;;;;;;5.07;4.68;;;;;;;48.12;11.96;101342.63;5070235;28;20257;-62
2022/08/09 09:43:16;;;;;;;4.55;4.15;;;;;;;49.17;11.95;101340.56;5067521;28;20052;-62
2022/08/09 09:45:49;;;;;;;5.00;4.40;;;;;;;49.43;11.14;101339.78;5065794;28;20047;-60
2022/08/09 09:48:17;;;;;;;7.05;4.63;;;;;;;49.63;11.12;101335.31;5067194;28;20132;-61
2022/08/09 09:50:47;;;;;;;6.38;5.85;;;;;;;49.70;11.39;101337.59;5069383;28;20045;-61
2022/08/09 09:53:16;;;;;;;4.72;4.25;;;;;;;49.95;11.19;101338.09;5072514;28;20069;-61
2022/08/09 09:55:58;;;;;;;4.18;3.78;;;;;;;50.48;10.54;101337.09;5065914;28;20390;-61
2022/08/09 09:58:26;;;;;;;6.60;4.70;;;;;;;50.43;11.13;101346.16;5073274;28;20492;-61
2022/08/09 10:00:57;;;;;;;5.25;4.78;;;;;;;49.88;10.90;101335.84;5071669;28;20394;-61
2022/08/09 10:03:43;;;;;;;4.72;4.30;;;;;;;49.16;10.96;101353.75;5073016;28;20048;-61
2022/08/09 10:06:11;;;;;;;5.25;4.47;;;;;;;49.91;10.69;101342.78;5074470;28;20382;-62
2022/08/09 10:08:38;;;;;;;3.90;3.50;;;;;;;49.88;10.59;101338.81;5062521;28;20056;-62
2022/08/09 10:11:17;;;;;;;5.45;4.60;;;;;;;50.38;10.50;101344.88;5071700;28;20048;-61
2022/08/09 10:13:46;;;;;;;4.85;4.45;;;;;;;50.80;10.45;101338.19;5069720;28;20492;-62
2022/08/09 10:16:15;;;;;;;4.00;3.60;;;;;;;51.21;10.49;101342.47;5070406;28;20040;-61
2022/08/09 10:18:53;;;;;;;3.83;3.53;;;;;;;51.31;9.63;101343.53;5066940;28;20052;-61
2022/08/09 10:21:20;;;;;;;4.45;4.15;;;;;;;51.38;10.08;101336.81;5069456;28;20052;-62
2022/08/09 10:23:48;;;;;;;6.15;5.75;;;;;;;51.27;9.99;101334.19;5079657;28;20159;-62
2022/08/09 10:26:16;;;;;;;5.88;5.45;;;;;;;51.04;9.73;101334.03;5069102;28;20049;-61
2022/08/09 10:28:44;;;;;;;6.90;6.40;;;;;;;50.22;10.12;101325.38;5064709;28;20044;-62
2022/08/09 10:31:14;;;;;;;4.55;4.18;;;;;;;50.20;10.11;101334.84;5071326;28;20052;-61
2022/08/09 10:33:42;;;;;;;5.85;5.25;;;;;;;50.28;10.05;101326.03;5070168;28;20059;-62
2022/08/09 10:36:11;;;;;;;5.35;4.95;;;;;;;50.24;10.13;101329.34;5071234;28;20518;-62
2022/08/09 10:38:40;;;;;;;4.93;3.50;;;;;;;49.40;10.32;101323.16;5066558;28;20497;-62
2022/08/09 10:41:08;;;;;;;3.92;3.63;;;;;;;49.79;10.54;101324.47;5071169;28;20508;-61
2022/08/09 10:43:37;;;;;;;5.05;4.43;;;;;;;50.05;10.47;101335.44;5069458;28;20432;-61
2022/08/09 10:46:24;;;;;;;3.92;3.63;;;;;;;49.97;10.14;101323.50;5066866;28;20040;-62
2022/08/09 10:49:00;;;;;;;8.95;4.03;;;;;;;49.99;10.05;101325.88;5066365;28;20524;-61
2022/08/09 10:51:38;;;;;;;4.28;3.85;;;;;;;50.41;10.49;101331.91;5063978;28;20049;-62
2022/08/09 10:54:09;;;;;;;4.13;3.72;;;;;;;50.45;9.68;101328.59;5063921;28;20488;-62
2022/08/09 10:56:39;;;;;;;4.80;4.40;;;;;;;49.44;10.48;101332.50;5067911;28;20040;-62
2022/08/09 10:59:31;;;;;;;6.55;6.05;;;;;;;49.09;10.59;101339.66;5061497;28;20060;-62
2022/08/09 11:01:59;;;;;;;5.35;4.93;;;;;;;49.28;10.57;101337.38;5070694;28;20052;-62
2022/08/09 11:04:28;;;;;;;4.97;4.57;;;;;;;49.87;10.49;101324.56;5069859;28;20385;-62
2022/08/09 11:07:27;;;;;;;4.40;4.00;;;;;;;49.72;10.63;101331.09;5069627;28;20055;-61
2022/08/09 11:09:55;;;;;;;4.10;3.80;;;;;;;50.23;10.03;101330.69;5071189;28;20052;-61
2022/08/09 11:12:27;;;;;;;4.95;4.32;;;;;;;50.03;10.07;101335.22;5077854;28;20084;-61
2022/08/09 11:14:56;;;;;;;4.40;4.10;;;;;;;50.47;9.81;101335.53;5071213;28;20052;-61
2022/08/09 11:18:04;;;;;;;4.25;3.88;;;;;;;50.31;9.54;101337.50;5071259;28;20408;-61
2022/08/09 11:20:40;;;;;;;6.25;5.82;;;;;;;50.22;9.73;101329.13;5072417;28;20052;-60
2022/08/09 11:23:07;;;;;;;5.18;4.78;;;;;;;50.17;10.56;101327.09;5085915;28;20058;-60
2022/08/09 11:25:38;;;;;;;3.85;3.55;;;;;;;50.39;9.85;101321.97;5070838;28;20448;-60
2022/08/09 11:28:32;;;;;;;7.53;4.53;;;;;;;50.87;9.80;101320.44;5068962;28;20052;-60
2022/08/09 11:31:01;;;;;;;4.50;4.07;;;;;;;50.19;10.20;101320.59;5065302;28;20049;-60
2022/08/09 11:33:43;;;;;;;4.10;3.80;;;;;;;50.22;9.90;101316.47;5070446;28;20060;-60
2022/08/09 11:36:12;;;;;;;4.65;3.90;;;;;;;50.19;9.61;101308.72;5069531;28;20508;-61
2022/08/09 11:38:40;;;;;;;6.88;4.03;;;;;;;49.94;10.45;101303.91;5070920;28;20071;-59
2022/08/09 11:41:28;;;;;;;4.20;3.85;;;;;;;49.96;10.07;101309.25;5077362;28;20048;-59